createdAt,value
2022-10-21T00:01:06.897Z,19.16
2022-10-21T00:03:37.096Z,19.04
2022-10-21T00:06:06.319Z,19.25
2022-10-21T00:08:34.456Z,19.11
2022-10-21T00:11:04.542Z,19.31
2022-10-21T00:13:34.071Z,19.30
2022-10-21T00:16:04.951Z,19.20
2022-10-21T00:18:34.048Z,18.85
2022-10-21T00:21:06.965Z,19.17
2022-10-21T00:23:35.203Z,18.75
2022-10-21T00:26:03.711Z,18.50
2022-10-21T00:28:32.386Z,18.38
2022-10-21T00:31:00.297Z,18.47
2022-10-21T00:33:29.350Z,18.42
2022-10-21T00:35:59.207Z,18.24
2022-10-21T00:38:28.822Z,18.35
2022-10-21T00:40:56.732Z,18.52
2022-10-21T00:43:25.380Z,18.07
2022-10-21T00:45:56.969Z,17.90
2022-10-21T00:48:31.697Z,18.24
2022-10-21T00:51:04.982Z,18.40
2022-10-21T00:53:37.576Z,17.54
2022-10-21T00:56:15.438Z,18.63
2022-10-21T00:58:47.034Z,18.83
2022-10-21T01:01:19.111Z,18.70
2022-10-21T01:03:49.790Z,19.10
2022-10-21T01:06:20.086Z,19.02
2022-10-21T01:08:49.706Z,19.12
2022-10-21T01:11:20.599Z,18.93
2022-10-21T01:14:04.524Z,18.77
2022-10-21T01:16:44.379Z,19.05
2022-10-21T01:19:41.053Z,19.09
2022-10-21T01:22:23.840Z,18.97
2022-10-21T01:25:19.194Z,19.18
2022-10-21T01:27:56.243Z,19.11
2022-10-21T01:30:38.274Z,19.30
2022-10-21T01:33:50.954Z,19.95
2022-10-21T01:36:29.965Z,20.07
2022-10-21T01:39:08.871Z,19.69
2022-10-21T01:41:42.591Z,19.82
2022-10-21T01:44:22.083Z,19.78
2022-10-21T01:46:57.889Z,19.64
2022-10-21T01:49:32.737Z,19.54
2022-10-21T01:52:01.939Z,19.55
2022-10-21T01:54:34.524Z,19.50
2022-10-21T01:57:04.376Z,19.36
2022-10-21T01:59:33.939Z,19.41
2022-10-21T02:02:08.060Z,19.50
2022-10-21T02:04:39.315Z,19.14
2022-10-21T02:07:07.475Z,19.56
2022-10-21T02:09:35.501Z,19.36
2022-10-21T02:12:06.179Z,19.36
2022-10-21T02:14:37.426Z,19.62
2022-10-21T02:17:08.966Z,19.69
2022-10-21T02:19:36.842Z,19.65
2022-10-21T02:22:09.029Z,19.50
2022-10-21T02:24:41.456Z,19.71
2022-10-21T02:27:09.696Z,19.56
2022-10-21T02:29:41.276Z,19.57
2022-10-21T02:32:24.050Z,19.54
2022-10-21T02:35:03.216Z,19.78
2022-10-21T02:40:13.052Z,19.71
2022-10-21T02:42:55.322Z,19.75
2022-10-21T02:45:24.069Z,19.41
2022-10-21T02:47:53.575Z,19.37
2022-10-21T02:50:21.995Z,19.56
2022-10-21T02:52:50.143Z,18.80
2022-10-21T02:55:18.246Z,19.78
2022-10-21T02:57:46.219Z,19.77
2022-10-21T03:00:15.620Z,19.11
2022-10-21T03:02:43.643Z,18.91
2022-10-21T03:05:14.234Z,18.59
2022-10-21T03:07:42.197Z,18.68
2022-10-21T03:10:10.579Z,18.81
2022-10-21T03:12:38.554Z,18.88
2022-10-21T03:15:07.364Z,18.98
2022-10-21T03:17:35.667Z,19.05
2022-10-21T03:20:04.514Z,19.08
2022-10-21T03:22:34.261Z,19.66
2022-10-21T03:25:02.240Z,19.54
2022-10-21T03:29:59.776Z,19.39
2022-10-21T03:32:27.777Z,19.34
2022-10-21T03:34:55.649Z,19.08
2022-10-21T03:37:23.560Z,19.28
2022-10-21T03:39:53.026Z,19.24
2022-10-21T03:42:20.888Z,19.42
2022-10-21T03:44:48.953Z,19.46
2022-10-21T03:47:19.593Z,19.77
2022-10-21T03:49:48.214Z,19.65
2022-10-21T03:52:16.141Z,19.43
2022-10-21T03:54:44.084Z,19.64
2022-10-21T03:57:13.557Z,19.72
2022-10-21T03:59:41.503Z,19.96
2022-10-21T04:02:09.377Z,19.80
2022-10-21T04:04:37.317Z,19.96
2022-10-21T04:07:05.284Z,19.94
2022-10-21T04:09:33.591Z,20.00
2022-10-21T04:12:01.480Z,19.70
2022-10-21T04:14:30.952Z,19.66
2022-10-21T04:17:06.850Z,19.76
2022-10-21T04:19:34.975Z,19.88
2022-10-21T04:22:03.189Z,19.95
2022-10-21T04:24:31.226Z,19.88
2022-10-21T04:26:59.356Z,19.89
2022-10-21T04:29:27.400Z,19.25
2022-10-21T04:31:56.868Z,19.28
2022-10-21T04:34:24.875Z,19.20
2022-10-21T04:36:52.774Z,19.06
2022-10-21T04:39:20.780Z,19.28
2022-10-21T04:41:50.654Z,19.34
2022-10-21T04:44:18.657Z,19.34
2022-10-21T04:46:46.577Z,19.33
2022-10-21T04:49:15.974Z,19.54
2022-10-21T04:51:43.991Z,19.42
2022-10-21T04:54:13.473Z,19.28
2022-10-21T04:56:41.444Z,18.95
2022-10-21T04:59:09.565Z,18.68
2022-10-21T05:01:38.182Z,18.91
2022-10-21T05:04:06.145Z,18.79
2022-10-21T05:06:35.512Z,18.68
2022-10-21T05:09:03.779Z,18.50
2022-10-21T05:11:31.938Z,18.46
2022-10-21T05:13:59.898Z,18.45
2022-10-21T05:16:27.940Z,18.39
2022-10-21T05:18:55.882Z,18.10
2022-10-21T05:21:23.907Z,18.30
2022-10-21T05:23:53.534Z,18.23
2022-10-21T05:26:21.484Z,18.15
2022-10-21T05:28:49.500Z,18.03
2022-10-21T05:31:17.835Z,18.06
2022-10-21T05:33:47.297Z,17.94
2022-10-21T05:36:15.854Z,17.89
2022-10-21T05:38:45.026Z,18.03
2022-10-21T05:41:14.493Z,17.83
2022-10-21T05:43:42.468Z,18.08
2022-10-21T05:46:10.748Z,18.02
2022-10-21T05:48:39.201Z,18.19
2022-10-21T05:51:08.464Z,18.12
2022-10-21T05:53:36.472Z,17.89
2022-10-21T05:56:06.635Z,17.76
2022-10-21T05:58:36.872Z,17.87
2022-10-21T06:01:05.169Z,17.91
2022-10-21T06:03:35.036Z,17.78
2022-10-21T06:06:05.447Z,17.46
2022-10-21T06:08:39.113Z,17.50
2022-10-21T06:11:09.717Z,17.39
2022-10-21T06:13:39.695Z,17.27
2022-10-21T06:16:09.351Z,17.37
2022-10-21T06:18:38.122Z,17.42
2022-10-21T06:21:06.598Z,17.56
2022-10-21T06:23:38.175Z,17.85
2022-10-21T06:26:08.149Z,17.96
2022-10-21T06:28:40.864Z,17.89
2022-10-21T06:31:10.716Z,18.15
2022-10-21T06:33:38.827Z,18.08
2022-10-21T06:36:07.431Z,18.08
2022-10-21T06:38:37.030Z,18.09
2022-10-21T06:41:10.519Z,18.09
2022-10-21T06:43:42.960Z,18.01
2022-10-21T06:46:12.540Z,17.75
2022-10-21T06:48:40.901Z,17.95
2022-10-21T06:51:10.795Z,17.58
2022-10-21T06:53:39.554Z,17.88
2022-10-21T06:56:10.129Z,18.12
2022-10-21T06:58:39.731Z,18.13
2022-10-21T07:01:21.341Z,18.20
2022-10-21T07:03:58.596Z,18.21
2022-10-21T07:06:26.633Z,18.40
2022-10-21T07:08:58.346Z,18.44
2022-10-21T07:11:26.818Z,18.40
2022-10-21T07:13:54.931Z,18.67
2022-10-21T07:16:26.569Z,18.47
2022-10-21T07:18:55.191Z,18.29
2022-10-21T07:21:25.786Z,18.59
2022-10-21T07:23:56.722Z,18.37
2022-10-21T07:26:28.255Z,18.41
2022-10-21T07:28:58.466Z,18.59
2022-10-21T07:31:29.186Z,18.53
2022-10-21T07:33:57.156Z,18.53
2022-10-21T07:36:27.640Z,18.70
2022-10-21T07:38:58.291Z,19.02
2022-10-21T07:41:28.349Z,19.03
2022-10-21T07:43:56.434Z,19.06
2022-10-21T07:46:24.866Z,18.85
2022-10-21T07:48:54.616Z,18.74
2022-10-21T07:51:28.390Z,19.13
2022-10-21T07:53:58.104Z,19.43
2022-10-21T07:56:28.107Z,19.71
2022-10-21T07:58:56.350Z,19.74
2022-10-21T08:01:24.864Z,19.93
2022-10-21T08:03:55.576Z,20.07
2022-10-21T08:06:25.433Z,19.66
2022-10-21T08:08:53.681Z,19.85
2022-10-21T08:11:22.751Z,20.06
2022-10-21T08:13:50.627Z,20.32
2022-10-21T08:16:18.708Z,20.36
2022-10-21T08:18:46.670Z,20.66
2022-10-21T08:21:16.676Z,20.87
2022-10-21T08:23:44.901Z,21.01
2022-10-21T08:26:14.440Z,21.05
2022-10-21T08:28:42.610Z,20.84
2022-10-21T08:31:12.538Z,21.02
2022-10-21T08:33:40.754Z,21.05
2022-10-21T08:36:10.346Z,20.86
2022-10-21T08:38:39.666Z,21.06
2022-10-21T08:41:19.803Z,21.14
2022-10-21T08:43:47.817Z,21.26
2022-10-21T08:46:20.937Z,21.03
2022-10-21T08:48:54.025Z,21.43
2022-10-21T08:51:28.237Z,21.37
2022-10-21T08:54:02.801Z,21.72
2022-10-21T08:56:31.781Z,21.81
2022-10-21T08:58:59.825Z,21.89
2022-10-21T09:01:33.966Z,21.98
2022-10-21T09:04:12.342Z,22.20
2022-10-21T09:06:50.890Z,22.20
2022-10-21T09:09:27.731Z,22.37
2022-10-21T09:12:04.297Z,22.37
2022-10-21T09:14:56.842Z,22.10
2022-10-21T09:17:43.048Z,22.02
2022-10-21T09:20:22.570Z,22.10
2022-10-21T09:23:02.660Z,22.07
2022-10-21T09:25:36.873Z,22.39
2022-10-21T09:28:13.193Z,22.27
2022-10-21T09:30:42.339Z,22.49
2022-10-21T09:33:17.312Z,22.45
2022-10-21T09:35:49.322Z,22.34
2022-10-21T09:38:34.284Z,23.08
2022-10-21T09:41:06.786Z,23.18
2022-10-21T09:43:34.672Z,23.11
2022-10-21T09:46:02.530Z,23.16
2022-10-21T09:48:53.970Z,22.63
2022-10-21T09:51:30.980Z,23.18
2022-10-21T09:54:03.752Z,23.40
2022-10-21T09:56:40.233Z,23.02
2022-10-21T09:59:10.055Z,23.40
2022-10-21T10:01:39.679Z,23.81
2022-10-21T10:04:15.119Z,23.76
2022-10-21T10:06:45.291Z,23.53
2022-10-21T10:09:28.016Z,23.58
2022-10-21T10:12:01.700Z,23.57
2022-10-21T10:14:32.576Z,23.90
2022-10-21T10:17:21.779Z,23.69
2022-10-21T10:20:14.185Z,23.94
2022-10-21T10:22:44.337Z,23.84
2022-10-21T10:25:22.855Z,23.60
2022-10-21T10:27:55.078Z,23.65
2022-10-21T10:30:24.609Z,23.95
2022-10-21T10:32:54.807Z,23.86
2022-10-21T10:35:31.617Z,23.81
2022-10-21T10:38:02.548Z,23.66
2022-10-21T10:40:34.207Z,23.73
2022-10-21T10:43:08.114Z,22.67
2022-10-21T10:45:36.428Z,22.41
2022-10-21T10:48:06.900Z,22.02
2022-10-21T10:50:48.867Z,22.23
2022-10-21T10:53:38.417Z,22.61
2022-10-21T10:56:19.745Z,22.56
2022-10-21T10:58:55.130Z,22.56
2022-10-21T11:01:28.157Z,22.77
2022-10-21T11:04:02.221Z,22.69
2022-10-21T11:06:36.980Z,22.69
2022-10-21T11:09:08.837Z,22.44
2022-10-21T11:11:40.085Z,22.53
2022-10-21T11:14:17.598Z,21.82
2022-10-21T11:17:00.859Z,22.56
2022-10-21T11:19:35.428Z,22.33
2022-10-21T11:22:24.659Z,22.10
2022-10-21T11:24:57.323Z,22.15
2022-10-21T11:27:57.870Z,22.14
2022-10-21T11:30:34.705Z,21.94
2022-10-21T11:33:20.229Z,22.21
2022-10-21T11:35:59.571Z,21.35
2022-10-21T11:38:40.645Z,22.02
2022-10-21T11:41:22.952Z,22.14
2022-10-21T11:44:04.357Z,21.96
2022-10-21T11:46:44.964Z,22.17
2022-10-21T11:49:26.819Z,22.38
2022-10-21T11:52:02.050Z,22.52
2022-10-21T11:55:10.380Z,22.44
2022-10-21T11:57:47.942Z,22.20
2022-10-21T12:00:20.739Z,22.30
2022-10-21T12:03:19.777Z,22.31
2022-10-21T12:05:55.277Z,22.43
2022-10-21T12:08:28.609Z,22.56
2022-10-21T12:11:02.008Z,22.38
2022-10-21T12:13:36.852Z,22.44
2022-10-21T12:16:09.803Z,22.26
2022-10-21T12:18:52.481Z,22.23
2022-10-21T12:21:24.480Z,22.23
2022-10-21T12:23:57.867Z,22.23
2022-10-21T12:26:29.656Z,22.18
2022-10-21T12:29:02.610Z,22.22
2022-10-21T12:31:40.881Z,22.21
2022-10-21T12:34:12.555Z,22.31
2022-10-21T12:36:44.283Z,22.06
2022-10-21T12:39:18.077Z,22.22
2022-10-21T12:41:48.756Z,22.14
2022-10-21T12:44:35.020Z,21.86
2022-10-21T12:47:24.163Z,22.01
2022-10-21T12:50:19.966Z,22.12
2022-10-21T12:53:03.703Z,22.33
2022-10-21T12:55:39.265Z,22.44
2022-10-21T12:58:19.307Z,22.65
2022-10-21T13:00:56.224Z,22.74
2022-10-21T13:03:55.356Z,22.16
2022-10-21T13:06:53.395Z,22.38
2022-10-21T13:09:44.629Z,22.17
2022-10-21T13:12:31.628Z,22.31
2022-10-21T13:15:02.591Z,22.31
2022-10-21T13:17:53.174Z,22.22
2022-10-21T13:20:47.198Z,22.23
2022-10-21T13:23:44.442Z,22.39
2022-10-21T13:26:25.539Z,22.11
2022-10-21T13:29:02.949Z,21.85
2022-10-21T13:31:31.319Z,21.95
2022-10-21T13:33:59.752Z,22.05
2022-10-21T13:36:39.162Z,21.98
2022-10-21T13:39:23.137Z,22.05
2022-10-21T13:41:59.850Z,21.96
2022-10-21T13:44:31.803Z,22.01
2022-10-21T13:47:19.315Z,21.69
2022-10-21T13:49:52.453Z,22.02
2022-10-21T13:52:20.520Z,21.48
2022-10-21T13:55:00.744Z,21.70
2022-10-21T13:57:33.846Z,21.72
2022-10-21T14:00:04.029Z,21.67
2022-10-21T14:02:33.049Z,21.76
2022-10-21T14:05:02.820Z,21.77
2022-10-21T14:07:31.087Z,21.75
2022-10-21T14:10:01.836Z,21.48
2022-10-21T14:12:33.875Z,21.45
2022-10-21T14:15:06.554Z,21.47
2022-10-21T14:17:36.610Z,21.41
2022-10-21T14:20:09.238Z,21.46
2022-10-21T14:22:38.906Z,21.52
2022-10-21T14:25:16.013Z,21.40
2022-10-21T14:27:47.215Z,21.54
2022-10-21T14:30:20.011Z,21.46
2022-10-21T14:32:49.329Z,21.15
2022-10-21T14:35:28.273Z,21.15
2022-10-21T14:38:04.895Z,21.09
2022-10-21T14:40:37.995Z,21.24
2022-10-21T14:43:17.652Z,21.37
2022-10-21T14:45:48.122Z,21.36
2022-10-21T14:48:22.303Z,21.46
2022-10-21T14:50:55.185Z,21.82
2022-10-21T14:53:25.480Z,21.74
2022-10-21T14:55:58.290Z,21.77
2022-10-21T14:58:32.130Z,21.72
2022-10-21T15:01:02.202Z,21.82
2022-10-21T15:03:44.773Z,21.92
2022-10-21T15:06:15.442Z,21.67
2022-10-21T15:08:45.447Z,21.77
2022-10-21T15:11:31.378Z,21.69
2022-10-21T15:14:20.749Z,21.74
2022-10-21T15:16:52.799Z,21.84
2022-10-21T15:19:24.308Z,21.85
2022-10-21T15:21:56.361Z,21.88
2022-10-21T15:24:31.598Z,21.95
2022-10-21T15:27:02.758Z,21.79
2022-10-21T15:29:36.725Z,21.78
2022-10-21T15:32:06.382Z,21.80
2022-10-21T15:34:34.420Z,21.95
2022-10-21T15:37:02.511Z,21.91
2022-10-21T15:39:30.724Z,21.92
2022-10-21T15:41:59.051Z,21.88
2022-10-21T15:44:30.992Z,21.84
2022-10-21T15:47:01.163Z,21.66
2022-10-21T15:49:34.941Z,21.84
2022-10-21T15:52:04.508Z,21.92
2022-10-21T15:54:34.546Z,21.88
2022-10-21T15:57:03.638Z,21.92
2022-10-21T15:59:34.985Z,21.92
2022-10-21T16:04:31.438Z,21.69
2022-10-21T16:07:03.269Z,21.83
2022-10-21T16:09:32.749Z,21.76
2022-10-21T16:12:03.139Z,21.83
2022-10-21T16:14:32.651Z,21.81
2022-10-21T16:17:00.948Z,21.96
2022-10-21T16:19:29.873Z,21.88
2022-10-21T16:21:58.291Z,21.83
2022-10-21T16:24:26.380Z,21.86
2022-10-21T16:26:54.654Z,21.89
2022-10-21T16:29:24.778Z,21.83
2022-10-21T16:31:55.314Z,21.82
2022-10-21T16:34:23.799Z,21.71
2022-10-21T16:36:51.844Z,21.75
2022-10-21T16:39:22.084Z,21.82
2022-10-21T16:41:50.252Z,21.65
2022-10-21T16:44:18.744Z,21.77
2022-10-21T16:46:51.937Z,21.66
2022-10-21T16:49:24.031Z,21.69
2022-10-21T16:51:53.531Z,22.07
2022-10-21T16:54:23.135Z,22.11
2022-10-21T16:57:08.419Z,22.10
2022-10-21T16:59:37.462Z,21.71
2022-10-21T17:02:15.544Z,21.78
2022-10-21T17:04:45.779Z,21.73
2022-10-21T17:07:14.275Z,21.75
2022-10-21T17:09:42.479Z,21.91
2022-10-21T17:12:12.699Z,21.49
2022-10-21T17:14:41.206Z,21.48
2022-10-21T17:17:09.294Z,21.29
2022-10-21T17:19:37.361Z,20.75
2022-10-21T17:22:07.436Z,21.15
2022-10-21T17:24:35.400Z,21.35
2022-10-21T17:27:03.797Z,21.41
2022-10-21T17:29:31.873Z,21.44
2022-10-21T17:31:59.726Z,21.35
2022-10-21T17:34:30.267Z,21.51
2022-10-21T17:37:01.303Z,21.87
2022-10-21T17:39:33.014Z,21.82
2022-10-21T17:42:01.001Z,22.01
2022-10-21T17:44:28.959Z,21.97
2022-10-21T17:46:57.175Z,21.83
2022-10-21T17:49:28.609Z,21.96
2022-10-21T17:51:56.672Z,21.80
2022-10-21T17:54:28.488Z,21.80
2022-10-21T17:56:59.442Z,21.74
2022-10-21T17:59:27.465Z,21.69
2022-10-21T18:01:55.440Z,21.58
2022-10-21T18:04:23.645Z,21.40
2022-10-21T18:06:54.699Z,21.50
2022-10-21T18:09:24.041Z,21.51
2022-10-21T18:11:52.793Z,21.40
2022-10-21T18:14:22.621Z,21.24
2022-10-21T18:16:50.497Z,21.24
2022-10-21T18:19:18.767Z,21.12
2022-10-21T18:21:46.658Z,21.03
2022-10-21T18:24:14.664Z,21.11
2022-10-21T18:26:42.578Z,21.20
2022-10-21T18:29:10.672Z,21.06
2022-10-21T18:31:40.849Z,20.98
2022-10-21T18:34:09.306Z,21.06
2022-10-21T18:36:37.633Z,21.10
2022-10-21T18:39:06.018Z,21.34
2022-10-21T18:41:34.255Z,21.50
2022-10-21T18:44:08.059Z,21.31
2022-10-21T18:46:37.520Z,21.24
2022-10-21T18:49:09.178Z,21.30
2022-10-21T18:51:37.255Z,21.03
2022-10-21T18:54:05.630Z,20.96
2022-10-21T18:56:33.760Z,20.76
2022-10-21T18:59:01.708Z,20.35
2022-10-21T19:01:29.825Z,20.38
2022-10-21T19:03:57.813Z,20.45
2022-10-21T19:06:37.062Z,20.58
2022-10-21T19:09:08.391Z,20.84
2022-10-21T19:11:36.453Z,20.74
2022-10-21T19:14:07.242Z,20.63
2022-10-21T19:16:37.949Z,20.66
2022-10-21T19:19:05.912Z,20.66
2022-10-21T19:21:35.332Z,20.89
2022-10-21T19:24:04.008Z,20.96
2022-10-21T19:26:33.926Z,20.69
2022-10-21T19:29:03.080Z,20.78
2022-10-21T19:31:34.669Z,20.87
2022-10-21T19:34:06.729Z,20.75
2022-10-21T19:36:36.049Z,20.97
2022-10-21T19:39:04.159Z,20.83
2022-10-21T19:41:32.306Z,20.72
2022-10-21T19:44:00.240Z,20.42
2022-10-21T19:46:30.940Z,20.64
2022-10-21T19:49:01.307Z,20.69
2022-10-21T19:51:29.600Z,20.80
2022-10-21T19:53:59.273Z,20.75
2022-10-21T19:56:31.962Z,20.73
2022-10-21T19:59:02.636Z,20.72
2022-10-21T20:04:01.260Z,20.83
2022-10-21T20:06:32.007Z,20.85
2022-10-21T20:09:02.930Z,20.89
2022-10-21T20:11:31.534Z,20.60
2022-10-21T20:14:00.216Z,20.53
2022-10-21T20:16:30.364Z,20.56
2022-10-21T20:19:00.484Z,20.62
2022-10-21T20:21:29.101Z,20.50
2022-10-21T20:23:58.003Z,20.22
2022-10-21T20:26:28.727Z,20.15
2022-10-21T20:28:57.477Z,20.12
2022-10-21T20:31:25.496Z,20.13
2022-10-21T20:33:53.414Z,20.20
2022-10-21T20:36:23.794Z,20.21
2022-10-21T20:38:53.999Z,20.26
2022-10-21T20:41:24.085Z,20.30
2022-10-21T20:43:54.396Z,20.34
2022-10-21T20:46:24.229Z,20.25
2022-10-21T20:48:54.117Z,20.29
2022-10-21T20:51:24.962Z,20.11
2022-10-21T20:53:55.196Z,20.10
2022-10-21T20:56:23.707Z,20.06
2022-10-21T20:58:53.173Z,19.89
2022-10-21T21:01:25.346Z,19.79
2022-10-21T21:03:55.149Z,19.95
2022-10-21T21:06:23.082Z,19.75
2022-10-21T21:09:08.561Z,19.74
2022-10-21T21:11:39.444Z,19.96
2022-10-21T21:14:08.737Z,20.03
2022-10-21T21:16:36.625Z,19.93
2022-10-21T21:19:06.799Z,19.88
2022-10-21T21:21:36.469Z,19.91
2022-10-21T21:24:05.031Z,19.84
2022-10-21T21:26:34.673Z,19.99
2022-10-21T21:29:03.118Z,20.14
2022-10-21T21:31:32.713Z,20.10
2022-10-21T21:34:04.218Z,20.23
2022-10-21T21:36:32.158Z,20.36
2022-10-21T21:39:00.158Z,20.42
2022-10-21T21:41:28.184Z,20.38
2022-10-21T21:43:56.870Z,20.35
2022-10-21T21:46:25.953Z,20.39
2022-10-21T21:48:59.465Z,20.79
2022-10-21T21:51:31.317Z,20.47
2022-10-21T21:54:00.290Z,19.90
2022-10-21T21:56:28.920Z,20.09
2022-10-21T21:58:58.059Z,20.08
2022-10-21T22:01:28.935Z,20.35
2022-10-21T22:03:59.045Z,20.51
2022-10-21T22:06:29.101Z,20.50
2022-10-21T22:08:57.445Z,20.71
2022-10-21T22:11:28.097Z,20.83
2022-10-21T22:13:56.348Z,20.98
2022-10-21T22:16:27.435Z,21.01
2022-10-21T22:19:01.730Z,21.12
2022-10-21T22:21:33.321Z,21.26
2022-10-21T22:24:01.264Z,20.75
2022-10-21T22:26:29.975Z,20.78
2022-10-21T22:28:58.219Z,20.83
2022-10-21T22:31:29.453Z,20.70
2022-10-21T22:34:00.383Z,20.51
2022-10-21T22:36:28.649Z,20.54
2022-10-21T22:38:58.207Z,20.51
2022-10-21T22:41:26.248Z,20.50
2022-10-21T22:43:54.159Z,20.22
2022-10-21T22:46:33.545Z,20.42
2022-10-21T22:49:03.322Z,20.27
2022-10-21T22:51:31.263Z,20.27
2022-10-21T22:54:01.276Z,20.37
2022-10-21T22:56:29.485Z,20.63
2022-10-21T22:58:57.899Z,20.60
2022-10-21T23:01:29.056Z,20.63
2022-10-21T23:03:58.032Z,20.56
2022-10-21T23:06:25.940Z,20.70
2022-10-21T23:08:53.952Z,20.77
2022-10-21T23:11:23.310Z,20.74
2022-10-21T23:14:02.441Z,20.66
2022-10-21T23:16:31.990Z,20.55
2022-10-21T23:19:00.131Z,20.62
2022-10-21T23:21:28.778Z,20.65
2022-10-21T23:23:56.821Z,20.70
2022-10-21T23:26:26.293Z,20.83
2022-10-21T23:28:54.268Z,20.92
2022-10-21T23:31:22.602Z,20.82
2022-10-21T23:33:50.638Z,20.81
2022-10-21T23:36:18.665Z,20.62
2022-10-21T23:38:46.582Z,20.57
2022-10-21T23:41:14.749Z,20.67
2022-10-21T23:43:44.087Z,20.69
2022-10-21T23:46:11.982Z,20.53
2022-10-21T23:48:39.930Z,20.53
2022-10-21T23:51:07.942Z,20.33
2022-10-21T23:53:35.892Z,20.32
2022-10-21T23:56:03.814Z,20.25
2022-10-21T23:58:31.827Z,20.20
